createdAt,value
2022-11-26T00:00:57.237Z,6.60
2022-11-26T00:03:33.104Z,6.50
2022-11-26T00:06:05.493Z,6.50
2022-11-26T00:08:52.478Z,6.50
2022-11-26T00:11:24.471Z,6.60
2022-11-26T00:13:56.560Z,6.60
2022-11-26T00:16:30.517Z,6.60
2022-11-26T00:19:02.823Z,6.60
2022-11-26T00:21:38.035Z,6.60
2022-11-26T00:24:27.747Z,6.60
2022-11-26T00:27:00.340Z,6.60
2022-11-26T00:29:32.277Z,6.60
2022-11-26T00:32:05.942Z,6.60
2022-11-26T00:34:46.742Z,6.60
2022-11-26T00:37:24.738Z,6.70
2022-11-26T00:39:59.346Z,6.70
2022-11-26T00:42:32.684Z,6.80
2022-11-26T00:45:14.887Z,6.80
2022-11-26T00:47:50.049Z,6.80
2022-11-26T00:50:26.243Z,6.80
2022-11-26T00:52:58.379Z,6.80
2022-11-26T00:55:43.889Z,6.80
2022-11-26T00:58:27.715Z,6.80
2022-11-26T01:01:00.831Z,6.80
2022-11-26T01:03:33.005Z,6.80
2022-11-26T01:06:05.201Z,6.80
2022-11-26T01:08:44.704Z,6.80
2022-11-26T01:11:21.031Z,6.80
2022-11-26T01:13:55.268Z,6.80
2022-11-26T01:16:35.279Z,6.80
2022-11-26T01:19:12.748Z,6.80
2022-11-26T01:21:46.194Z,6.80
2022-11-26T01:24:18.214Z,6.80
2022-11-26T01:26:50.482Z,6.80
2022-11-26T01:29:22.405Z,6.80
2022-11-26T01:31:54.461Z,6.80
2022-11-26T01:34:26.559Z,6.70
2022-11-26T01:36:58.670Z,6.80
2022-11-26T01:39:30.593Z,6.70
2022-11-26T01:42:08.426Z,6.70
2022-11-26T01:45:00.168Z,6.70
2022-11-26T01:47:32.127Z,6.70
2022-11-26T01:50:29.552Z,6.70
2022-11-26T01:53:41.171Z,6.70
2022-11-26T01:56:26.378Z,6.70
2022-11-26T01:59:12.705Z,6.70
2022-11-26T02:01:56.526Z,6.60
2022-11-26T02:04:56.418Z,6.60
2022-11-26T02:07:39.223Z,6.60
2022-11-26T02:10:13.236Z,6.70
2022-11-26T02:12:45.824Z,6.70
2022-11-26T02:15:17.928Z,6.70
2022-11-26T02:17:58.042Z,6.70
2022-11-26T02:20:53.633Z,6.70
2022-11-26T02:24:09.386Z,6.70
2022-11-26T02:27:21.070Z,6.70
2022-11-26T02:30:14.863Z,6.70
2022-11-26T02:33:21.402Z,6.70
2022-11-26T02:36:09.854Z,6.60
2022-11-26T02:38:47.582Z,6.60
2022-11-26T02:41:20.612Z,6.60
2022-11-26T02:43:52.472Z,6.60
2022-11-26T02:46:24.792Z,6.50
2022-11-26T02:48:58.240Z,6.50
2022-11-26T02:51:34.682Z,6.50
2022-11-26T02:54:08.663Z,6.50
2022-11-26T02:56:42.711Z,6.50
2022-11-26T02:59:15.122Z,6.50
2022-11-26T03:02:15.996Z,6.50
2022-11-26T03:04:58.102Z,6.50
2022-11-26T03:07:32.489Z,6.50
2022-11-26T03:10:06.624Z,6.50
2022-11-26T03:12:39.110Z,6.50
2022-11-26T03:15:14.851Z,6.50
2022-11-26T03:17:47.031Z,6.50
2022-11-26T03:20:19.366Z,6.50
2022-11-26T03:22:51.359Z,6.50
2022-11-26T03:25:23.324Z,6.50
2022-11-26T03:27:55.384Z,6.50
2022-11-26T03:30:27.424Z,6.50
2022-11-26T03:32:59.408Z,6.50
2022-11-26T03:35:31.358Z,6.50
2022-11-26T03:38:03.256Z,6.50
2022-11-26T03:40:35.252Z,6.40
2022-11-26T03:43:07.346Z,6.30
2022-11-26T03:45:39.268Z,6.30
2022-11-26T03:48:11.370Z,6.20
2022-11-26T03:50:43.404Z,6.20
2022-11-26T03:53:15.366Z,6.20
2022-11-26T03:55:48.495Z,6.20
2022-11-26T03:58:20.421Z,6.20
2022-11-26T04:00:52.338Z,6.20
2022-11-26T04:03:24.431Z,6.10
2022-11-26T04:05:56.662Z,6.10
2022-11-26T04:08:28.538Z,6.10
2022-11-26T04:11:00.767Z,6.20
2022-11-26T04:13:32.632Z,6.20
2022-11-26T04:16:05.055Z,6.20
2022-11-26T04:18:37.452Z,6.30
2022-11-26T04:21:10.023Z,6.30
2022-11-26T04:23:41.962Z,6.30
2022-11-26T04:26:13.981Z,6.30
2022-11-26T04:28:46.924Z,6.40
2022-11-26T04:31:19.617Z,6.40
2022-11-26T04:33:51.677Z,6.40
2022-11-26T04:36:23.612Z,6.50
2022-11-26T04:38:55.568Z,6.50
2022-11-26T04:41:28.427Z,6.50
2022-11-26T04:44:00.347Z,6.50
2022-11-26T04:46:32.379Z,6.60
2022-11-26T04:49:04.508Z,6.50
2022-11-26T04:51:36.458Z,6.60
2022-11-26T04:54:12.710Z,6.50
2022-11-26T04:56:45.285Z,6.50
2022-11-26T04:59:17.353Z,6.50
2022-11-26T05:01:49.320Z,6.40
2022-11-26T05:04:21.266Z,6.40
2022-11-26T05:06:53.231Z,6.40
2022-11-26T05:09:25.846Z,6.30
2022-11-26T05:11:57.845Z,6.30
2022-11-26T05:14:29.685Z,6.30
2022-11-26T05:17:01.776Z,6.30
2022-11-26T05:19:34.202Z,6.20
2022-11-26T05:22:06.299Z,6.20
2022-11-26T05:24:38.492Z,6.10
2022-11-26T05:27:10.541Z,6.10
2022-11-26T05:29:42.544Z,6.00
2022-11-26T05:32:14.547Z,6.00
2022-11-26T05:34:46.982Z,6.00
2022-11-26T05:37:18.990Z,5.90
2022-11-26T05:39:51.369Z,5.90
2022-11-26T05:42:23.515Z,5.80
2022-11-26T05:44:55.475Z,5.80
2022-11-26T05:47:27.514Z,5.70
2022-11-26T05:49:59.582Z,5.70
2022-11-26T05:52:31.906Z,5.60
2022-11-26T05:55:04.352Z,5.50
2022-11-26T05:57:46.468Z,5.40
2022-11-26T06:00:19.080Z,5.30
2022-11-26T06:02:51.378Z,5.20
2022-11-26T06:05:23.577Z,5.20
2022-11-26T06:07:55.653Z,5.10
2022-11-26T06:10:27.740Z,5.00
2022-11-26T06:12:59.905Z,4.90
2022-11-26T06:15:31.957Z,4.90
2022-11-26T06:18:04.012Z,4.80
2022-11-26T06:20:37.229Z,4.70
2022-11-26T06:23:09.242Z,4.70
2022-11-26T06:25:42.075Z,4.60
2022-11-26T06:28:14.060Z,4.60
2022-11-26T06:30:46.503Z,4.50
2022-11-26T06:33:18.592Z,4.50
2022-11-26T06:35:50.542Z,4.40
2022-11-26T06:38:22.523Z,4.40
2022-11-26T06:41:03.456Z,4.30
2022-11-26T06:43:38.266Z,4.30
2022-11-26T06:46:11.267Z,4.20
2022-11-26T06:48:43.774Z,4.20
2022-11-26T06:51:16.930Z,4.10
2022-11-26T06:53:51.481Z,4.10
2022-11-26T06:56:23.831Z,4.00
2022-11-26T06:58:56.335Z,4.00
2022-11-26T07:01:28.349Z,3.90
2022-11-26T07:04:01.016Z,3.90
2022-11-26T07:06:33.633Z,3.90
2022-11-26T07:09:09.340Z,3.90
2022-11-26T07:11:42.579Z,3.90
2022-11-26T07:14:14.860Z,3.80
2022-11-26T07:16:46.809Z,3.80
2022-11-26T07:19:19.270Z,3.80
2022-11-26T07:21:51.220Z,3.90
2022-11-26T07:24:23.276Z,3.90
2022-11-26T07:26:56.246Z,3.90
2022-11-26T07:29:28.439Z,3.90
2022-11-26T07:32:00.587Z,4.00
2022-11-26T07:34:32.734Z,4.00
2022-11-26T07:37:04.871Z,4.10
2022-11-26T07:39:36.929Z,4.10
2022-11-26T07:42:08.876Z,4.10
2022-11-26T07:44:41.174Z,4.20
2022-11-26T07:47:13.166Z,4.30
2022-11-26T07:49:45.298Z,4.40
2022-11-26T07:52:17.395Z,4.40
2022-11-26T07:54:49.507Z,4.40
2022-11-26T07:57:22.915Z,4.50
2022-11-26T07:59:56.220Z,4.50
2022-11-26T08:02:28.274Z,4.60
2022-11-26T08:05:00.253Z,4.60
2022-11-26T08:07:32.640Z,4.70
2022-11-26T08:10:06.564Z,4.70
2022-11-26T08:12:39.048Z,4.70
2022-11-26T08:15:11.352Z,4.70
2022-11-26T08:17:43.715Z,4.70
2022-11-26T08:20:16.141Z,4.80
2022-11-26T08:22:48.587Z,4.80
2022-11-26T08:25:20.972Z,4.90
2022-11-26T08:27:53.463Z,4.90
2022-11-26T08:30:25.700Z,5.00
2022-11-26T08:32:57.749Z,5.00
2022-11-26T08:35:51.146Z,5.00
2022-11-26T08:38:42.007Z,5.10
2022-11-26T08:41:14.264Z,5.10
2022-11-26T08:46:41.811Z,5.20
2022-11-26T08:49:15.361Z,5.30
2022-11-26T08:51:48.024Z,5.30
2022-11-26T08:54:20.139Z,5.30
2022-11-26T08:56:52.234Z,5.30
2022-11-26T08:59:25.435Z,5.30
2022-11-26T09:01:57.794Z,5.30
2022-11-26T09:04:29.968Z,5.40
2022-11-26T09:07:02.812Z,5.40
2022-11-26T09:09:34.969Z,5.40
2022-11-26T09:12:08.079Z,5.40
2022-11-26T09:14:42.324Z,5.50
2022-11-26T09:17:14.817Z,5.50
2022-11-26T09:19:46.969Z,5.50
2022-11-26T09:22:19.316Z,5.50
2022-11-26T09:24:51.375Z,5.50
2022-11-26T09:27:23.631Z,5.60
2022-11-26T09:29:56.515Z,5.60
2022-11-26T09:32:33.876Z,5.70
2022-11-26T09:35:06.956Z,5.70
2022-11-26T09:37:39.702Z,5.80
2022-11-26T09:40:19.254Z,5.80
2022-11-26T09:43:07.225Z,5.90
2022-11-26T09:46:01.264Z,6.00
2022-11-26T09:48:35.153Z,6.10
2022-11-26T09:51:13.657Z,6.10
2022-11-26T09:53:50.094Z,6.20
2022-11-26T09:56:27.624Z,6.30
2022-11-26T09:59:05.549Z,6.30
2022-11-26T10:01:43.122Z,6.30
2022-11-26T10:04:33.309Z,6.40
2022-11-26T10:07:47.004Z,6.40
2022-11-26T10:11:03.631Z,6.30
2022-11-26T10:14:02.624Z,6.40
2022-11-26T10:17:14.114Z,6.50
2022-11-26T10:20:42.282Z,6.60
2022-11-26T10:24:01.606Z,6.80
2022-11-26T10:26:42.148Z,6.80
2022-11-26T10:29:24.666Z,6.90
2022-11-26T10:32:35.017Z,6.90
2022-11-26T10:35:29.782Z,7.00
2022-11-26T10:38:02.853Z,7.10
2022-11-26T10:40:35.824Z,7.20
2022-11-26T10:43:11.128Z,7.20
2022-11-26T10:45:56.850Z,7.30
2022-11-26T10:48:31.149Z,7.40
2022-11-26T10:51:15.921Z,7.40
2022-11-26T10:53:57.692Z,7.50
2022-11-26T10:56:45.284Z,7.70
2022-11-26T10:59:31.537Z,7.80
2022-11-26T11:02:23.108Z,7.90
2022-11-26T11:05:04.321Z,8.00
2022-11-26T11:07:41.981Z,8.10
2022-11-26T11:10:26.343Z,8.20
2022-11-26T11:13:12.163Z,8.40
2022-11-26T11:15:44.429Z,8.40
2022-11-26T11:18:20.309Z,8.60
2022-11-26T11:21:01.122Z,8.70
2022-11-26T11:24:07.135Z,8.80
2022-11-26T11:26:50.951Z,8.80
2022-11-26T11:29:32.473Z,8.90
2022-11-26T11:32:27.582Z,8.90
2022-11-26T11:35:32.877Z,8.90
2022-11-26T11:38:05.368Z,8.90
2022-11-26T11:40:53.019Z,9.00
2022-11-26T11:43:26.767Z,9.00
2022-11-26T11:46:17.617Z,9.10
2022-11-26T11:49:15.252Z,9.10
2022-11-26T11:52:25.763Z,9.30
2022-11-26T11:55:35.639Z,9.30
2022-11-26T11:58:38.789Z,9.40
2022-11-26T12:01:42.697Z,9.60
2022-11-26T12:04:53.733Z,9.80
2022-11-26T12:08:01.158Z,10.00
2022-11-26T12:11:21.051Z,10.00
2022-11-26T12:14:18.014Z,10.10
2022-11-26T12:17:21.081Z,10.20
2022-11-26T12:20:17.416Z,10.30
2022-11-26T12:23:39.918Z,10.30
2022-11-26T12:26:53.151Z,10.20
2022-11-26T12:29:36.315Z,10.00
2022-11-26T12:32:42.894Z,9.80
2022-11-26T12:35:43.220Z,9.70
2022-11-26T12:38:29.631Z,9.50
2022-11-26T12:41:27.891Z,9.60
2022-11-26T12:44:22.019Z,9.60
2022-11-26T12:47:08.702Z,9.60
2022-11-26T12:50:15.655Z,9.50
2022-11-26T12:53:24.810Z,9.40
2022-11-26T12:56:54.404Z,9.30
2022-11-26T12:59:45.831Z,9.10
2022-11-26T13:02:29.695Z,9.10
2022-11-26T13:05:05.727Z,9.00
2022-11-26T13:08:19.733Z,8.90
2022-11-26T13:11:36.647Z,8.90
2022-11-26T13:14:41.465Z,8.90
2022-11-26T13:17:47.473Z,8.80
2022-11-26T13:20:39.011Z,8.70
2022-11-26T13:23:32.834Z,8.70
2022-11-26T13:26:54.385Z,8.70
2022-11-26T13:30:05.542Z,8.70
2022-11-26T13:33:22.227Z,8.60
2022-11-26T13:36:32.724Z,8.60
2022-11-26T13:40:10.060Z,8.60
2022-11-26T13:43:16.915Z,8.70
2022-11-26T13:46:21.857Z,8.70
2022-11-26T13:49:14.601Z,8.70
2022-11-26T13:52:47.337Z,8.60
2022-11-26T13:55:42.138Z,8.50
2022-11-26T13:58:23.100Z,8.50
2022-11-26T14:01:28.687Z,8.40
2022-11-26T14:04:13.089Z,8.40
2022-11-26T14:07:04.985Z,8.30
2022-11-26T14:09:55.448Z,8.30
2022-11-26T14:13:09.466Z,8.20
2022-11-26T14:15:43.453Z,8.20
2022-11-26T14:18:53.519Z,8.10
2022-11-26T14:21:30.758Z,8.10
2022-11-26T14:24:51.523Z,8.10
2022-11-26T14:27:31.331Z,8.00
2022-11-26T14:30:06.538Z,8.00
2022-11-26T14:33:12.685Z,8.10
2022-11-26T14:35:57.419Z,8.00
2022-11-26T14:38:33.161Z,8.00
2022-11-26T14:41:07.563Z,7.90
2022-11-26T14:43:39.877Z,7.90
2022-11-26T14:46:17.323Z,7.80
2022-11-26T14:48:55.044Z,7.80
2022-11-26T14:51:32.666Z,7.80
2022-11-26T14:54:12.805Z,7.80
2022-11-26T14:56:50.114Z,7.80
2022-11-26T14:59:22.307Z,7.70
2022-11-26T15:01:55.517Z,7.70
2022-11-26T15:04:39.115Z,7.60
2022-11-26T15:07:39.749Z,7.60
2022-11-26T15:10:15.154Z,7.50
2022-11-26T15:12:52.708Z,7.50
2022-11-26T15:15:27.143Z,7.40
2022-11-26T15:18:10.742Z,7.40
2022-11-26T15:20:52.785Z,7.30
2022-11-26T15:23:33.242Z,7.30
2022-11-26T15:26:16.962Z,7.20
2022-11-26T15:28:51.652Z,7.20
2022-11-26T15:31:24.265Z,7.10
2022-11-26T15:34:14.057Z,7.00
2022-11-26T15:36:46.438Z,7.00
2022-11-26T15:39:45.303Z,6.90
2022-11-26T15:42:32.433Z,6.80
2022-11-26T15:45:06.002Z,6.80
2022-11-26T15:47:54.272Z,6.70
2022-11-26T15:50:32.294Z,6.70
2022-11-26T15:53:13.926Z,6.60
2022-11-26T15:55:50.587Z,6.60
2022-11-26T15:58:29.059Z,6.50
2022-11-26T16:01:10.937Z,6.50
2022-11-26T16:03:50.194Z,6.40
2022-11-26T16:07:27.820Z,6.40
2022-11-26T16:10:17.358Z,6.30
2022-11-26T16:13:28.305Z,6.30
2022-11-26T16:16:10.096Z,6.30
2022-11-26T16:18:59.781Z,6.20
2022-11-26T16:21:35.211Z,6.20
2022-11-26T16:24:30.022Z,6.20
2022-11-26T16:27:28.079Z,6.10
2022-11-26T16:30:15.534Z,6.00
2022-11-26T16:32:48.150Z,6.00
2022-11-26T16:35:45.211Z,5.90
2022-11-26T16:38:23.640Z,5.90
2022-11-26T16:40:57.483Z,5.80
2022-11-26T16:43:29.871Z,5.70
2022-11-26T16:46:02.256Z,5.70
2022-11-26T16:48:36.568Z,5.60
2022-11-26T16:51:10.065Z,5.60
2022-11-26T16:53:43.045Z,5.60
2022-11-26T16:56:38.186Z,5.60
2022-11-26T16:59:26.354Z,5.50
2022-11-26T17:01:59.607Z,5.50
2022-11-26T17:04:32.539Z,5.40
2022-11-26T17:07:04.819Z,5.40
2022-11-26T17:09:36.938Z,5.40
2022-11-26T17:12:35.691Z,5.30
2022-11-26T17:15:08.242Z,5.30
2022-11-26T17:17:40.763Z,5.30
2022-11-26T17:20:23.568Z,5.20
2022-11-26T17:22:56.839Z,5.20
2022-11-26T17:25:29.177Z,5.20
2022-11-26T17:28:01.296Z,5.10
2022-11-26T17:30:33.937Z,5.10
2022-11-26T17:33:07.092Z,5.00
2022-11-26T17:35:40.102Z,5.00
2022-11-26T17:38:19.802Z,4.90
2022-11-26T17:40:52.605Z,4.90
2022-11-26T17:43:24.772Z,4.80
2022-11-26T17:45:57.834Z,4.80
2022-11-26T17:48:31.186Z,4.80
2022-11-26T17:51:03.568Z,4.70
2022-11-26T17:53:35.996Z,4.70
2022-11-26T17:56:16.613Z,4.70
2022-11-26T17:58:52.091Z,4.70
2022-11-26T18:01:25.145Z,4.60
2022-11-26T18:03:57.698Z,4.60
2022-11-26T18:06:33.521Z,4.60
2022-11-26T18:09:25.578Z,4.60
2022-11-26T18:11:58.184Z,4.50
2022-11-26T18:14:34.523Z,4.50
2022-11-26T18:17:12.499Z,4.50
2022-11-26T18:19:45.862Z,4.40
2022-11-26T18:22:23.991Z,4.40
2022-11-26T18:24:58.277Z,4.30
2022-11-26T18:27:31.660Z,4.30
2022-11-26T18:30:05.846Z,4.20
2022-11-26T18:32:39.610Z,4.20
2022-11-26T18:35:13.209Z,4.20
2022-11-26T18:37:46.201Z,4.10
2022-11-26T18:40:18.842Z,4.10
2022-11-26T18:42:53.004Z,4.00
2022-11-26T18:45:25.457Z,4.00
2022-11-26T18:47:58.235Z,4.00
2022-11-26T18:50:31.241Z,4.00
2022-11-26T18:53:03.791Z,3.90
2022-11-26T18:55:39.455Z,3.90
2022-11-26T18:58:14.639Z,3.90
2022-11-26T19:00:50.984Z,3.80
2022-11-26T19:03:26.733Z,3.80
2022-11-26T19:06:00.137Z,3.80
2022-11-26T19:08:39.488Z,3.80
2022-11-26T19:11:17.465Z,3.70
2022-11-26T19:13:52.068Z,3.70
2022-11-26T19:16:29.257Z,3.70
2022-11-26T19:19:03.069Z,3.70
2022-11-26T19:21:36.061Z,3.70
2022-11-26T19:24:09.178Z,3.70
2022-11-26T19:27:01.111Z,3.60
2022-11-26T19:29:34.054Z,3.60
2022-11-26T19:32:06.683Z,3.60
2022-11-26T19:34:40.173Z,3.60
2022-11-26T19:37:14.186Z,3.60
2022-11-26T19:39:47.013Z,3.50
2022-11-26T19:42:20.770Z,3.50
2022-11-26T19:44:53.347Z,3.50
2022-11-26T19:47:25.597Z,3.50
2022-11-26T19:49:59.177Z,3.50
2022-11-26T19:52:33.641Z,3.50
2022-11-26T19:55:06.433Z,3.50
2022-11-26T19:57:39.575Z,3.40
2022-11-26T20:00:12.730Z,3.40
2022-11-26T20:02:45.642Z,3.40
2022-11-26T20:05:18.382Z,3.30
2022-11-26T20:07:51.237Z,3.30
2022-11-26T20:10:24.982Z,3.30
2022-11-26T20:12:57.601Z,3.20
2022-11-26T20:15:30.768Z,3.20
2022-11-26T20:18:04.415Z,3.20
2022-11-26T20:20:37.799Z,3.20
2022-11-26T20:23:11.586Z,3.20
2022-11-26T20:25:44.276Z,3.10
2022-11-26T20:28:16.862Z,3.00
2022-11-26T20:30:50.945Z,3.00
2022-11-26T20:33:24.415Z,3.00
2022-11-26T20:35:57.751Z,3.00
2022-11-26T20:38:31.145Z,2.90
2022-11-26T20:41:09.898Z,2.90
2022-11-26T20:43:45.821Z,2.80
2022-11-26T20:46:22.344Z,2.80
2022-11-26T20:48:56.612Z,2.80
2022-11-26T20:51:29.465Z,2.80
2022-11-26T20:54:03.071Z,2.80
2022-11-26T20:56:38.066Z,2.80
2022-11-26T20:59:11.664Z,2.70
2022-11-26T21:01:44.772Z,2.70
2022-11-26T21:04:17.580Z,2.70
2022-11-26T21:06:50.688Z,2.70
2022-11-26T21:09:26.234Z,2.60
2022-11-26T21:11:59.572Z,2.60
2022-11-26T21:14:32.781Z,2.60
2022-11-26T21:17:09.976Z,2.60
2022-11-26T21:19:44.624Z,2.50
2022-11-26T21:22:19.339Z,2.50
2022-11-26T21:24:56.772Z,2.50
2022-11-26T21:27:32.614Z,2.50
2022-11-26T21:30:07.239Z,2.40
2022-11-26T21:32:41.177Z,2.40
2022-11-26T21:35:14.392Z,2.40
2022-11-26T21:37:47.938Z,2.40
2022-11-26T21:40:20.885Z,2.40
2022-11-26T21:42:53.879Z,2.40
2022-11-26T21:45:27.943Z,2.30
2022-11-26T21:48:01.201Z,2.30
2022-11-26T21:50:34.526Z,2.30
2022-11-26T21:53:08.554Z,2.30
2022-11-26T21:55:41.027Z,2.30
2022-11-26T21:58:13.298Z,2.30
2022-11-26T22:00:45.497Z,2.30
2022-11-26T22:03:18.330Z,2.30
2022-11-26T22:05:50.881Z,2.30
2022-11-26T22:08:23.783Z,2.30
2022-11-26T22:10:57.150Z,2.40
2022-11-26T22:13:30.465Z,2.40
2022-11-26T22:16:04.372Z,2.40
2022-11-26T22:18:41.606Z,2.40
2022-11-26T22:21:27.916Z,2.40
2022-11-26T22:24:04.926Z,2.40
2022-11-26T22:26:42.115Z,2.40
2022-11-26T22:29:17.926Z,2.40
2022-11-26T22:31:51.321Z,2.40
2022-11-26T22:34:24.993Z,2.40
2022-11-26T22:36:58.851Z,2.50
2022-11-26T22:39:31.886Z,2.50
2022-11-26T22:42:04.480Z,2.50
2022-11-26T22:44:37.991Z,2.40
2022-11-26T22:47:10.876Z,2.40
2022-11-26T22:49:44.650Z,2.40
2022-11-26T22:52:18.360Z,2.40
2022-11-26T22:54:51.188Z,2.30
2022-11-26T22:57:25.484Z,2.30
2022-11-26T22:59:57.841Z,2.30
2022-11-26T23:02:30.014Z,2.30
2022-11-26T23:05:02.229Z,2.30
2022-11-26T23:07:34.726Z,2.40
2022-11-26T23:10:08.008Z,2.40
2022-11-26T23:12:40.770Z,2.40
2022-11-26T23:15:13.002Z,2.40
2022-11-26T23:17:45.274Z,2.40
2022-11-26T23:20:17.313Z,2.40
2022-11-26T23:22:49.494Z,2.40
2022-11-26T23:25:21.526Z,2.40
2022-11-26T23:27:53.598Z,2.50
2022-11-26T23:30:25.799Z,2.50
2022-11-26T23:32:58.077Z,2.50
2022-11-26T23:35:30.108Z,2.50
2022-11-26T23:38:02.822Z,2.50
2022-11-26T23:40:34.933Z,2.50
2022-11-26T23:43:08.700Z,2.50
2022-11-26T23:45:41.266Z,2.60
2022-11-26T23:48:13.586Z,2.60
2022-11-26T23:50:46.091Z,2.60
2022-11-26T23:53:18.356Z,2.60
2022-11-26T23:55:50.600Z,2.50
2022-11-26T23:58:22.855Z,2.50
